Tannersville, Pennsylvania
Current Conditions -  °F | °C
As of 11:02 PM on Wednesday 17 Dec 2014 (Local Time) from KMPO Reporting Station
Overcast Overcast  
Wind Chill: 20°   Ceiling: 5000
Heat Index: 31°   Visibility: 10mi
Dew Point: 23°   Wind: 15mph
Humidity: 72%   Direction: 300°WNW
Pressure: 29.85"   Gusts: NA
Location:  41.04°N, 75.31°W
Report Text: KMPO 180402Z AUTO 30013KT 10SM FEW023 OVC050 M01/M05 A2985 RMK AO2 T10061050
Loading
Personal Weather Stations






























Interactive Weather Map New forecast layout! Learn more

10-Day Weather Forecast

Advertisements
Track Severe Weather on mobile